Time;durP1;ratioP1;P1;durP2;ratioP2;P2;SDS_P1;SDS_P2;PMS_P1;PMS_P2;Temp;Humidity;BMP_temperature;BMP_pressure;BME280_temperature;BME280_humidity;BME280_pressure;Samples;Min_cycle;Max_cycle;Signal;HPM_P1;HPM_P2
2023/06/06 00:01:09;;;;;;;14.07;13.50;;;19.00;99.90;;;;;;4899137;29;20465;-81
2023/06/06 00:03:38;;;;;;;13.47;13.07;;;18.90;99.90;;;;;;4907233;29;20461;-82
2023/06/06 00:06:07;;;;;;;13.40;13.00;;;18.90;99.90;;;;;;4906352;29;20461;-82
2023/06/06 00:08:36;;;;;;;13.17;12.77;;;18.80;99.90;;;;;;4906953;29;20457;-81
2023/06/06 00:11:04;;;;;;;13.50;13.10;;;18.80;99.90;;;;;;4907226;29;20498;-82
2023/06/06 00:13:34;;;;;;;12.97;12.57;;;18.80;99.90;;;;;;4907031;29;20944;-81
2023/06/06 00:16:03;;;;;;;13.90;13.50;;;18.70;99.90;;;;;;4908484;29;20458;-81
2023/06/06 00:18:31;;;;;;;13.90;13.40;;;18.80;99.90;;;;;;4907131;29;20542;-82
2023/06/06 00:20:59;;;;;;;13.30;12.90;;;18.60;99.90;;;;;;4905828;29;20462;-81
2023/06/06 00:23:28;;;;;;;12.70;12.30;;;18.60;99.90;;;;;;4907392;29;20573;-81
2023/06/06 00:25:56;;;;;;;12.37;11.97;;;18.50;99.90;;;;;;4906033;29;20486;-82
2023/06/06 00:28:25;;;;;;;12.10;11.80;;;18.60;99.90;;;;;;4905584;29;20455;-81
2023/06/06 00:30:53;;;;;;;12.63;12.23;;;18.50;99.90;;;;;;4906783;29;20609;-81
2023/06/06 00:33:21;;;;;;;12.30;12.00;;;18.60;99.90;;;;;;4908407;29;20542;-81
2023/06/06 00:35:49;;;;;;;13.30;12.90;;;18.60;99.90;;;;;;4907562;29;20592;-82
2023/06/06 00:38:17;;;;;;;13.00;12.60;;;18.60;99.90;;;;;;4906461;29;20458;-82
2023/06/06 00:40:47;;;;;;;12.47;12.07;;;18.60;99.90;;;;;;4907176;29;20465;-81
2023/06/06 00:43:15;;;;;;;13.77;13.27;;;18.60;99.90;;;;;;4907694;29;20457;-82
2023/06/06 00:45:43;;;;;;;13.10;12.70;;;18.50;99.90;;;;;;4908516;29;20529;-82
2023/06/06 00:48:11;;;;;;;12.67;12.37;;;18.50;99.90;;;;;;4907139;29;20521;-81
2023/06/06 00:50:40;;;;;;;12.60;12.23;;;18.50;99.90;;;;;;4908610;29;20486;-80
2023/06/06 00:53:09;;;;;;;12.90;12.60;;;18.50;99.90;;;;;;4906840;29;20462;-81
2023/06/06 00:55:39;;;;;;;13.20;12.80;;;18.40;99.90;;;;;;4900379;29;20501;-82
2023/06/06 00:58:09;;;;;;;12.73;12.13;;;18.40;99.90;;;;;;4907745;29;20465;-82
2023/06/06 01:00:39;;;;;;;12.03;11.73;;;18.40;99.90;;;;;;4907710;29;20513;-82
2023/06/06 01:03:10;;;;;;;12.00;11.60;;;18.50;99.90;;;;;;4907742;29;20559;-81
2023/06/06 01:05:38;;;;;;;12.50;12.10;;;18.40;99.90;;;;;;4906804;29;20843;-82
2023/06/06 01:08:07;;;;;;;12.43;11.93;;;18.40;99.90;;;;;;4899260;29;20470;-81
2023/06/06 01:10:36;;;;;;;12.57;12.17;;;18.40;99.90;;;;;;4906708;29;20970;-81
2023/06/06 01:13:13;;;;;;;12.07;11.67;;;18.40;99.90;;;;;;4908012;29;20813;-82
2023/06/06 01:15:45;;;;;;;12.10;11.80;;;18.40;99.90;;;;;;4906515;29;20983;-82
2023/06/06 01:18:14;;;;;;;12.77;12.23;;;18.50;99.90;;;;;;4906607;29;20880;-81
2023/06/06 01:20:43;;;;;;;12.60;12.10;;;18.40;99.90;;;;;;4905552;29;20536;-81
2023/06/06 01:23:13;;;;;;;12.17;11.70;;;18.40;99.90;;;;;;4906572;29;20457;-81
2023/06/06 01:25:47;;;;;;;12.50;12.10;;;18.40;99.90;;;;;;4906457;29;20476;-82
2023/06/06 01:28:16;;;;;;;13.60;13.10;;;18.40;99.90;;;;;;4907313;29;20445;-81
2023/06/06 01:30:46;;;;;;;12.13;11.83;;;18.30;99.90;;;;;;4906311;29;20766;-83
2023/06/06 01:33:23;;;;;;;12.00;11.70;;;18.30;99.90;;;;;;4907464;29;20522;-81
2023/06/06 01:36:00;;;;;;;11.97;11.67;;;18.30;99.90;;;;;;4906932;29;20493;-81
2023/06/06 01:38:34;;;;;;;12.20;11.90;;;18.30;99.90;;;;;;4905289;29;20488;-81
2023/06/06 01:41:03;;;;;;;12.60;12.20;;;18.30;99.90;;;;;;4907659;29;21057;-81
2023/06/06 01:43:33;;;;;;;12.43;12.03;;;18.30;99.90;;;;;;4906434;29;20923;-81
2023/06/06 01:46:02;;;;;;;12.43;12.13;;;18.30;99.90;;;;;;4909785;29;20464;-81
2023/06/06 01:48:31;;;;;;;12.20;11.90;;;18.40;99.90;;;;;;4911088;29;20454;-81
2023/06/06 01:51:00;;;;;;;13.23;12.80;;;18.30;99.90;;;;;;4910409;29;20477;-82
2023/06/06 01:53:29;;;;;;;11.90;11.60;;;18.30;99.90;;;;;;4910512;29;20461;-81
2023/06/06 01:55:58;;;;;;;12.23;11.80;;;18.30;99.90;;;;;;4910439;29;21140;-81
2023/06/06 01:58:26;;;;;;;12.60;12.17;;;18.30;99.90;;;;;;4911183;29;20446;-81
2023/06/06 02:00:55;;;;;;;12.73;12.43;;;18.30;99.90;;;;;;4909374;29;20573;-81
2023/06/06 02:03:23;;;;;;;12.90;12.50;;;18.20;99.90;;;;;;4911136;29;20483;-81
2023/06/06 02:05:51;;;;;;;13.00;12.60;;;18.20;99.90;;;;;;4911532;29;20882;-81
2023/06/06 02:08:20;;;;;;;12.37;12.07;;;18.20;99.90;;;;;;4909886;29;20471;-81
2023/06/06 02:10:50;;;;;;;12.90;12.50;;;18.10;99.90;;;;;;4909576;29;20470;-81
2023/06/06 02:13:19;;;;;;;12.40;12.00;;;18.00;99.90;;;;;;4909132;29;20544;-81
2023/06/06 02:15:48;;;;;;;12.50;12.10;;;18.00;99.90;;;;;;4911804;29;20485;-82
2023/06/06 02:18:16;;;;;;;12.37;12.00;;;18.00;99.90;;;;;;4910915;29;20455;-81
2023/06/06 02:20:44;;;;;;;11.70;11.40;;;18.00;99.90;;;;;;4911001;29;20470;-81
2023/06/06 02:23:12;;;;;;;13.10;12.70;;;17.90;99.90;;;;;;4911567;29;20500;-81
2023/06/06 02:25:40;;;;;;;12.20;11.90;;;17.80;99.90;;;;;;4911791;29;20484;-82
2023/06/06 02:28:11;;;;;;;12.43;12.00;;;17.80;99.90;;;;;;4910047;29;20568;-82
2023/06/06 02:30:39;;;;;;;12.70;12.30;;;17.70;99.90;;;;;;4909794;29;20475;-81
2023/06/06 02:33:07;;;;;;;12.80;12.40;;;17.70;99.90;;;;;;4910813;29;21008;-81
2023/06/06 02:35:36;;;;;;;12.53;12.13;;;17.60;99.90;;;;;;4910836;29;20515;-81
2023/06/06 02:38:04;;;;;;;12.67;12.37;;;17.60;99.90;;;;;;4910001;29;20454;-80
2023/06/06 02:40:32;;;;;;;12.67;12.27;;;17.60;99.90;;;;;;4910966;29;20492;-81
2023/06/06 02:43:00;;;;;;;12.37;11.97;;;17.60;99.90;;;;;;4909713;29;20506;-81
2023/06/06 02:45:30;;;;;;;13.17;12.77;;;17.60;99.90;;;;;;4911194;29;20477;-81
2023/06/06 02:47:58;;;;;;;13.00;12.40;;;17.50;99.90;;;;;;4907770;29;20474;-82
2023/06/06 02:50:28;;;;;;;12.90;12.50;;;17.60;99.90;;;;;;4910283;29;20511;-82
2023/06/06 02:52:56;;;;;;;12.90;12.50;;;17.50;99.90;;;;;;4909078;29;20503;-82
2023/06/06 02:55:24;;;;;;;13.33;12.83;;;17.50;99.90;;;;;;4910286;29;20482;-81
2023/06/06 02:57:52;;;;;;;12.50;12.20;;;17.50;99.90;;;;;;4908873;29;20768;-81
2023/06/06 03:00:21;;;;;;;13.10;12.70;;;17.50;99.90;;;;;;4908715;29;20476;-82
2023/06/06 03:02:50;;;;;;;13.77;13.37;;;17.40;99.90;;;;;;4909432;29;20459;-81
2023/06/06 03:05:19;;;;;;;13.70;13.20;;;17.30;99.90;;;;;;4910652;29;20503;-81
2023/06/06 03:07:47;;;;;;;13.73;13.33;;;17.30;99.90;;;;;;4910199;29;20473;-81
2023/06/06 03:10:16;;;;;;;13.67;13.20;;;17.20;99.90;;;;;;4908868;29;20464;-80
2023/06/06 03:12:44;;;;;;;13.37;12.97;;;17.10;99.90;;;;;;4909509;29;20489;-81
2023/06/06 03:15:12;;;;;;;13.90;13.50;;;17.10;99.90;;;;;;4908978;29;20588;-81
2023/06/06 03:17:40;;;;;;;13.63;13.23;;;17.20;99.90;;;;;;4909166;29;21262;-81
2023/06/06 03:20:13;;;;;;;13.30;12.90;;;17.10;99.90;;;;;;4908524;29;20447;-82
2023/06/06 03:22:41;;;;;;;14.23;13.73;;;17.10;99.90;;;;;;4909721;29;20480;-82
2023/06/06 03:25:09;;;;;;;14.20;13.70;;;17.10;99.90;;;;;;4909542;29;20591;-81
2023/06/06 03:27:38;;;;;;;14.17;13.47;;;17.10;99.90;;;;;;4909097;29;20493;-81
2023/06/06 03:30:07;;;;;;;13.40;13.00;;;17.10;99.90;;;;;;4909454;29;20467;-81
2023/06/06 03:32:35;;;;;;;13.40;12.90;;;17.10;99.90;;;;;;4910348;29;20480;-82
2023/06/06 03:35:04;;;;;;;13.43;12.93;;;17.10;99.90;;;;;;4909583;29;20569;-81
2023/06/06 03:37:33;;;;;;;12.67;12.17;;;17.10;99.90;;;;;;4908930;29;20487;-81
2023/06/06 03:40:01;;;;;;;13.20;12.60;;;17.00;99.90;;;;;;4898906;29;20457;-81
2023/06/06 03:42:29;;;;;;;12.50;12.10;;;16.90;99.90;;;;;;4906480;29;20450;-81
2023/06/06 03:44:58;;;;;;;13.00;12.60;;;16.90;99.90;;;;;;4907464;29;20482;-81
2023/06/06 03:47:26;;;;;;;13.20;12.70;;;16.90;99.90;;;;;;4906351;29;21017;-81
2023/06/06 03:49:54;;;;;;;13.50;12.90;;;17.00;99.90;;;;;;4908042;29;20472;-81
2023/06/06 03:52:22;;;;;;;13.90;13.30;;;17.00;99.90;;;;;;4908721;29;20487;-82
2023/06/06 03:54:52;;;;;;;13.63;13.23;;;17.00;99.90;;;;;;4908431;29;20482;-81
2023/06/06 03:57:20;;;;;;;14.30;13.70;;;17.00;99.90;;;;;;4908177;29;20494;-81
2023/06/06 03:59:49;;;;;;;13.37;12.97;;;16.90;99.90;;;;;;4897923;29;20462;-81
2023/06/06 04:02:18;;;;;;;12.90;12.43;;;16.80;99.90;;;;;;4906677;29;20453;-81
2023/06/06 04:04:50;;;;;;;14.07;13.57;;;16.80;99.90;;;;;;4907110;29;20489;-81
2023/06/06 04:07:18;;;;;;;14.30;13.80;;;16.70;99.90;;;;;;4908128;29;20973;-81
2023/06/06 04:09:47;;;;;;;14.13;13.63;;;16.70;99.90;;;;;;4906040;29;20458;-82
2023/06/06 04:12:16;;;;;;;13.90;13.37;;;16.70;99.90;;;;;;4906272;29;20477;-82
2023/06/06 04:14:44;;;;;;;13.90;13.40;;;16.70;99.90;;;;;;4908103;29;20477;-81
2023/06/06 04:17:12;;;;;;;14.50;13.90;;;16.80;99.90;;;;;;4907787;29;20469;-82
2023/06/06 04:19:41;;;;;;;14.63;14.10;;;16.80;99.90;;;;;;4906311;29;20466;-82
2023/06/06 04:22:09;;;;;;;14.67;14.07;;;16.80;99.90;;;;;;4908094;29;20540;-81
2023/06/06 04:24:37;;;;;;;15.97;15.27;;;16.80;99.90;;;;;;4908878;29;21046;-82
2023/06/06 04:27:06;;;;;;;15.50;14.90;;;16.80;99.90;;;;;;4907101;29;20455;-81
2023/06/06 04:29:36;;;;;;;15.20;14.70;;;16.70;99.90;;;;;;4906415;29;20953;-81
2023/06/06 04:32:05;;;;;;;15.00;14.50;;;16.70;99.90;;;;;;4906911;29;20465;-83
2023/06/06 04:34:35;;;;;;;16.17;15.50;;;16.80;99.90;;;;;;4908191;29;20490;-81
2023/06/06 04:37:04;;;;;;;16.00;15.40;;;16.90;99.90;;;;;;4906892;29;20462;-82
2023/06/06 04:39:32;;;;;;;16.27;15.47;;;16.90;99.90;;;;;;4905522;29;20472;-82
2023/06/06 04:42:02;;;;;;;16.73;15.87;;;16.90;99.90;;;;;;4905355;29;20971;-81
2023/06/06 04:44:30;;;;;;;16.37;15.67;;;16.90;99.90;;;;;;4907917;29;20488;-81
2023/06/06 04:47:03;;;;;;;16.43;15.83;;;16.90;99.90;;;;;;4905169;29;20462;-81
2023/06/06 04:49:35;;;;;;;16.47;15.77;;;16.90;99.90;;;;;;4905866;29;20461;-81
2023/06/06 04:52:05;;;;;;;17.20;16.30;;;17.00;99.90;;;;;;4908652;29;21023;-81
2023/06/06 04:54:34;;;;;;;17.13;16.40;;;16.90;99.90;;;;;;4908300;29;21040;-81
2023/06/06 04:57:02;;;;;;;17.97;17.00;;;16.90;99.90;;;;;;4905522;29;20532;-81
2023/06/06 04:59:32;;;;;;;17.80;17.00;;;17.00;99.90;;;;;;4906471;29;20532;-81
2023/06/06 05:02:03;;;;;;;17.73;17.03;;;17.00;1.00;;;;;;4905204;29;20805;-81
2023/06/06 05:04:31;;;;;;;18.00;17.27;;;17.00;99.90;;;;;;4906562;29;20473;-82
2023/06/06 05:07:00;;;;;;;18.10;17.40;;;17.00;1.00;;;;;;4905787;29;20462;-81
2023/06/06 05:09:28;;;;;;;17.50;16.70;;;17.00;99.90;;;;;;4906169;29;21172;-82
2023/06/06 05:11:56;;;;;;;18.50;17.60;;;17.10;99.90;;;;;;4907007;29;20517;-81
2023/06/06 05:14:24;;;;;;;17.80;17.10;;;17.10;99.90;;;;;;4908398;29;20496;-81
2023/06/06 05:16:53;;;;;;;17.80;17.00;;;17.10;99.90;;;;;;4906271;29;20487;-81
2023/06/06 05:19:23;;;;;;;17.37;16.67;;;17.20;99.90;;;;;;4906225;29;20462;-80
2023/06/06 05:21:51;;;;;;;16.60;16.00;;;17.20;99.90;;;;;;4911045;29;20889;-82
2023/06/06 05:24:19;;;;;;;17.53;16.83;;;17.30;99.90;;;;;;4909001;29;20482;-81
2023/06/06 05:26:47;;;;;;;17.70;17.00;;;17.50;99.90;;;;;;4910822;29;20446;-81
2023/06/06 05:29:15;;;;;;;16.77;16.17;;;17.50;99.90;;;;;;4911126;29;20466;-81
2023/06/06 05:31:43;;;;;;;16.60;15.80;;;17.60;99.90;;;;;;4910778;29;20476;-81
2023/06/06 05:34:12;;;;;;;16.70;16.10;;;17.60;99.90;;;;;;4909026;29;20581;-79
2023/06/06 05:36:42;;;;;;;16.53;16.03;;;17.70;99.90;;;;;;4909858;29;20475;-81
2023/06/06 05:39:10;;;;;;;17.10;16.50;;;17.70;99.90;;;;;;4909424;29;20589;-80
2023/06/06 05:41:39;;;;;;;17.03;16.40;;;17.70;99.90;;;;;;4910212;29;20490;-81
2023/06/06 05:44:07;;;;;;;16.57;15.97;;;17.80;99.90;;;;;;4907912;29;20610;-81
2023/06/06 05:46:36;;;;;;;17.10;16.40;;;17.80;99.90;;;;;;4910930;29;20465;-81
2023/06/06 05:49:04;;;;;;;16.63;16.03;;;17.70;99.90;;;;;;4910907;29;20457;-80
2023/06/06 05:51:32;;;;;;;16.23;15.73;;;17.80;99.90;;;;;;4910251;29;20462;-81
2023/06/06 05:54:01;;;;;;;16.93;16.33;;;17.80;99.90;;;;;;4910145;29;20529;-80
2023/06/06 05:56:44;;;;;;;17.27;16.37;;;17.90;99.90;;;;;;4910782;29;20513;-81
2023/06/06 05:59:12;;;;;;;17.40;16.60;;;18.00;99.90;;;;;;4908454;29;20823;-81
2023/06/06 06:01:42;;;;;;;17.10;16.37;;;18.10;99.90;;;;;;4908944;29;20544;-82
2023/06/06 06:04:11;;;;;;;16.80;16.30;;;18.10;99.90;;;;;;4909163;29;20481;-81
2023/06/06 06:06:40;;;;;;;17.03;16.40;;;18.10;99.90;;;;;;4910245;29;20528;-81
2023/06/06 06:09:10;;;;;;;17.80;16.90;;;18.10;99.90;;;;;;4909972;29;20458;-81
2023/06/06 06:11:38;;;;;;;17.37;16.57;;;18.10;99.90;;;;;;4910023;29;20452;-83
2023/06/06 06:14:06;;;;;;;16.83;16.23;;;18.20;99.90;;;;;;4908697;29;20524;-81
2023/06/06 06:16:34;;;;;;;17.00;16.40;;;18.30;99.90;;;;;;4909397;29;20544;-81
2023/06/06 06:19:04;;;;;;;16.80;16.20;;;18.30;99.90;;;;;;4921297;29;20467;-80
2023/06/06 06:21:32;;;;;;;16.20;15.70;;;18.40;99.90;;;;;;4909525;29;20550;-81
2023/06/06 06:24:00;;;;;;;17.27;16.70;;;18.40;99.90;;;;;;4907392;29;20456;-82
2023/06/06 06:26:29;;;;;;;16.63;16.10;;;18.40;99.90;;;;;;4923378;29;20457;-81
2023/06/06 06:28:58;;;;;;;17.70;17.00;;;18.50;99.90;;;;;;4922035;29;20477;-81
2023/06/06 06:31:26;;;;;;;17.07;16.37;;;18.50;99.90;;;;;;4908766;29;20948;-82
2023/06/06 06:33:55;;;;;;;17.50;16.80;;;18.50;99.90;;;;;;4908577;29;20544;-82
2023/06/06 06:36:23;;;;;;;17.57;16.83;;;18.50;99.90;;;;;;4909576;29;20472;-81
2023/06/06 06:38:51;;;;;;;16.97;16.37;;;18.70;99.90;;;;;;4907030;29;20469;-81
2023/06/06 06:41:20;;;;;;;17.13;16.50;;;18.80;99.90;;;;;;4909525;29;20457;-81
2023/06/06 06:43:50;;;;;;;17.23;16.60;;;18.90;99.90;;;;;;4909894;29;21010;-81
2023/06/06 06:46:18;;;;;;;16.10;15.50;;;19.00;99.90;;;;;;4908639;29;20470;-81
2023/06/06 06:48:50;;;;;;;16.90;16.30;;;19.20;99.90;;;;;;4908495;29;20458;-81
2023/06/06 06:51:21;;;;;;;16.80;16.20;;;19.20;99.90;;;;;;4908111;29;20513;-81
2023/06/06 06:53:51;;;;;;;16.30;15.70;;;19.40;99.90;;;;;;4907688;29;20896;-82
2023/06/06 06:56:21;;;;;;;17.40;16.43;;;19.40;99.90;;;;;;4909062;29;20462;-82
2023/06/06 06:58:50;;;;;;;16.90;16.20;;;19.30;99.90;;;;;;4908970;29;20549;-81
2023/06/06 07:01:19;;;;;;;16.10;15.43;;;19.20;99.90;;;;;;4906867;29;20475;-81
2023/06/06 07:03:48;;;;;;;16.50;15.50;;;19.30;99.90;;;;;;4901372;29;20525;-81
2023/06/06 07:06:18;;;;;;;16.23;15.50;;;19.40;99.90;;;;;;4909362;29;20458;-81
2023/06/06 07:08:46;;;;;;;16.60;15.70;;;19.30;99.90;;;;;;4909297;29;20545;-81
2023/06/06 07:11:14;;;;;;;15.87;15.27;;;19.50;99.90;;;;;;4908047;29;20464;-81
2023/06/06 07:13:42;;;;;;;16.27;15.67;;;19.60;99.90;;;;;;4909184;29;20462;-81
2023/06/06 07:16:12;;;;;;;15.70;15.20;;;19.60;99.90;;;;;;4908658;29;20464;-81
2023/06/06 07:18:41;;;;;;;15.90;15.23;;;19.60;99.90;;;;;;4908190;29;20470;-80
2023/06/06 07:21:09;;;;;;;16.27;15.67;;;19.70;99.90;;;;;;4908373;29;20470;-81
2023/06/06 07:23:39;;;;;;;15.63;15.03;;;19.70;99.90;;;;;;4907963;29;20557;-81
2023/06/06 07:26:08;;;;;;;15.90;15.20;;;19.70;99.90;;;;;;4908534;29;21015;-82
2023/06/06 07:28:36;;;;;;;16.43;15.83;;;19.80;99.90;;;;;;4908522;29;20450;-82
2023/06/06 07:31:04;;;;;;;15.87;15.10;;;19.90;99.90;;;;;;4908217;29;20486;-81
2023/06/06 07:33:35;;;;;;;16.27;15.67;;;19.90;99.90;;;;;;4909298;29;20534;-80
2023/06/06 07:36:03;;;;;;;15.17;14.70;;;20.00;99.90;;;;;;4907513;29;20906;-81
2023/06/06 07:38:31;;;;;;;16.40;15.80;;;20.00;99.90;;;;;;4908483;29;20556;-82
2023/06/06 07:41:00;;;;;;;15.53;15.00;;;20.00;99.90;;;;;;4908474;29;20466;-81
2023/06/06 07:43:28;;;;;;;15.23;14.63;;;20.10;99.90;;;;;;4907433;29;20481;-82
2023/06/06 07:45:56;;;;;;;16.07;15.47;;;20.10;99.90;;;;;;4907819;29;20477;-81
2023/06/06 07:48:24;;;;;;;15.00;14.50;;;20.10;99.90;;;;;;4908690;29;20465;-81
2023/06/06 07:50:54;;;;;;;15.60;15.10;;;20.20;99.90;;;;;;4907174;29;20816;-81
2023/06/06 07:53:23;;;;;;;16.90;14.87;;;20.20;99.90;;;;;;4907277;29;20541;-82
2023/06/06 07:55:51;;;;;;;15.83;15.03;;;20.20;99.90;;;;;;4908306;29;20486;-82
2023/06/06 07:58:25;;;;;;;15.67;15.07;;;20.20;99.90;;;;;;4907729;29;20482;-82
2023/06/06 08:00:58;;;;;;;15.73;15.13;;;20.20;99.90;;;;;;4908067;29;20465;-81
2023/06/06 08:03:26;;;;;;;14.90;14.40;;;20.30;99.90;;;;;;4907469;29;20459;-81
2023/06/06 08:05:56;;;;;;;15.07;14.57;;;20.40;99.90;;;;;;4907493;29;20557;-81
2023/06/06 08:08:26;;;;;;;15.40;14.80;;;20.50;99.90;;;;;;4906887;29;20450;-81
2023/06/06 08:10:55;;;;;;;14.80;14.13;;;20.50;99.90;;;;;;4905055;29;20458;-81
2023/06/06 08:13:23;;;;;;;15.43;14.63;;;20.40;99.90;;;;;;4908135;29;20461;-80
2023/06/06 08:15:51;;;;;;;14.53;14.03;;;20.40;99.90;;;;;;4906467;29;20552;-80
2023/06/06 08:18:19;;;;;;;15.53;14.80;;;20.50;99.90;;;;;;4907437;29;20489;-80
2023/06/06 08:20:47;;;;;;;14.50;14.00;;;20.60;99.90;;;;;;4908029;29;20465;-81
2023/06/06 08:23:17;;;;;;;14.70;14.20;;;20.60;99.90;;;;;;4907872;29;20856;-81
2023/06/06 08:25:45;;;;;;;15.63;14.87;;;20.70;99.90;;;;;;4906463;29;20571;-79
2023/06/06 08:28:13;;;;;;;14.40;13.70;;;20.70;99.90;;;;;;4906791;29;20454;-81
2023/06/06 08:30:41;;;;;;;14.43;13.93;;;20.80;99.90;;;;;;4906022;29;20500;-81
2023/06/06 08:33:10;;;;;;;15.40;14.67;;;20.80;99.90;;;;;;4907111;29;20456;-82
2023/06/06 08:35:40;;;;;;;15.40;14.83;;;20.80;99.90;;;;;;4907608;29;20490;-82
2023/06/06 08:38:08;;;;;;;14.73;14.23;;;20.90;99.90;;;;;;4906844;29;20476;-81
2023/06/06 08:40:38;;;;;;;14.90;14.40;;;20.90;99.90;;;;;;4907446;29;20457;-82
2023/06/06 08:43:09;;;;;;;14.83;14.30;;;21.00;99.90;;;;;;4907761;29;20908;-81
2023/06/06 08:45:41;;;;;;;16.20;15.23;;;21.00;99.90;;;;;;4907882;29;20487;-81
2023/06/06 08:48:10;;;;;;;15.63;15.03;;;21.10;99.90;;;;;;4908114;29;20469;-80
2023/06/06 08:50:39;;;;;;;15.93;15.23;;;21.10;99.90;;;;;;4906976;29;20462;-81
2023/06/06 08:53:08;;;;;;;15.73;15.07;;;21.20;99.90;;;;;;4905946;29;20457;-82
2023/06/06 08:55:38;;;;;;;15.90;15.30;;;21.20;99.90;;;;;;4907718;29;20874;-82
2023/06/06 08:58:07;;;;;;;16.17;15.60;;;21.20;99.90;;;;;;4906404;29;20554;-82
2023/06/06 09:00:35;;;;;;;15.50;14.83;;;21.30;99.90;;;;;;4906767;29;20556;-82
2023/06/06 09:03:06;;;;;;;16.20;15.60;;;21.30;99.90;;;;;;4904838;29;20477;-80
2023/06/06 09:05:37;;;;;;;16.43;15.73;;;21.30;99.90;;;;;;4905841;29;20485;-81
2023/06/06 09:08:07;;;;;;;16.10;15.43;;;21.40;99.90;;;;;;4906621;29;20458;-81
2023/06/06 09:10:37;;;;;;;16.10;15.40;;;21.40;99.90;;;;;;4906947;29;20469;-81
2023/06/06 09:13:07;;;;;;;16.27;15.60;;;21.50;99.90;;;;;;4907437;29;20456;-81
2023/06/06 09:15:35;;;;;;;16.20;15.30;;;21.60;99.90;;;;;;4906680;29;20509;-81
2023/06/06 09:18:03;;;;;;;16.47;15.67;;;21.50;99.90;;;;;;4904743;29;20479;-81
2023/06/06 09:20:31;;;;;;;15.87;15.27;;;21.60;99.90;;;;;;4906278;29;20465;-80
2023/06/06 09:23:00;;;;;;;15.70;15.10;;;21.60;99.90;;;;;;4906465;29;20469;-81
2023/06/06 09:25:29;;;;;;;15.90;15.40;;;21.70;99.90;;;;;;4906834;29;20533;-81
2023/06/06 09:28:01;;;;;;;15.63;15.13;;;21.80;99.90;;;;;;4906304;29;21744;-82
2023/06/06 09:30:30;;;;;;;16.73;16.03;;;21.90;99.90;;;;;;4908078;29;20468;-81
2023/06/06 09:33:01;;;;;;;15.90;15.30;;;21.90;99.90;;;;;;4907464;29;20464;-81
2023/06/06 09:35:31;;;;;;;16.87;16.17;;;21.90;99.90;;;;;;4904984;29;21276;-82
2023/06/06 09:38:07;;;;;;;16.37;15.67;;;21.90;99.90;;;;;;4904245;29;21268;-81
2023/06/06 09:40:44;;;;;;;15.60;15.10;;;22.00;99.90;;;;;;4905612;29;20445;-82
2023/06/06 09:43:15;;;;;;;15.60;15.00;;;22.00;99.90;;;;;;4907114;29;20467;-81
2023/06/06 09:45:51;;;;;;;14.83;14.23;;;22.10;99.90;;;;;;4907081;29;20501;-81
2023/06/06 09:48:23;;;;;;;15.63;14.93;;;22.10;99.90;;;;;;4905894;29;20465;-80
2023/06/06 09:50:52;;;;;;;15.97;15.13;;;22.20;99.90;;;;;;4906019;29;20473;-81
2023/06/06 09:53:24;;;;;;;15.33;14.63;;;22.20;99.90;;;;;;4907796;29;20621;-80
2023/06/06 09:55:54;;;;;;;15.53;14.93;;;22.20;99.90;;;;;;4905980;29;20597;-81
2023/06/06 09:58:26;;;;;;;15.70;14.83;;;22.30;99.90;;;;;;4907386;29;20914;-81
2023/06/06 10:00:58;;;;;;;15.60;15.00;;;22.30;99.90;;;;;;4904896;29;20859;-81
2023/06/06 10:03:27;;;;;;;14.40;13.90;;;22.30;99.90;;;;;;4907968;29;20465;-81
2023/06/06 10:05:56;;;;;;;15.70;15.00;;;22.40;99.90;;;;;;4905221;29;20481;-81
2023/06/06 10:08:25;;;;;;;15.43;14.83;;;22.40;99.90;;;;;;4910371;29;20450;-80
2023/06/06 10:10:53;;;;;;;15.77;15.17;;;22.50;99.90;;;;;;4899855;29;20606;-81
2023/06/06 10:13:25;;;;;;;15.63;15.03;;;22.50;99.90;;;;;;4910313;29;20468;-81
2023/06/06 10:15:53;;;;;;;15.47;14.87;;;22.60;99.90;;;;;;4909626;29;20486;-81
2023/06/06 10:18:22;;;;;;;15.63;15.03;;;22.60;99.90;;;;;;4908417;29;20457;-81
2023/06/06 10:20:53;;;;;;;15.70;15.00;;;22.70;99.90;;;;;;4910551;29;20493;-80
2023/06/06 10:23:21;;;;;;;15.57;15.00;;;22.70;99.90;;;;;;4909940;29;20450;-79
2023/06/06 10:25:50;;;;;;;14.70;14.20;;;22.70;99.90;;;;;;4908944;29;20510;-81
2023/06/06 10:28:28;;;;;;;15.30;14.80;;;22.70;99.90;;;;;;4908451;29;20490;-81
2023/06/06 10:31:03;;;;;;;14.73;14.13;;;22.80;99.90;;;;;;4908181;29;20461;-81
2023/06/06 10:33:41;;;;;;;15.47;14.63;;;22.70;99.90;;;;;;4910533;29;20507;-81
2023/06/06 10:36:13;;;;;;;15.43;14.93;;;22.80;99.90;;;;;;4909017;29;21236;-80
2023/06/06 10:38:43;;;;;;;15.60;14.73;;;22.90;99.90;;;;;;4908939;29;20548;-81
2023/06/06 10:41:16;;;;;;;14.70;14.07;;;23.00;99.90;;;;;;4909609;29;21154;-81
2023/06/06 10:43:52;;;;;;;14.77;14.17;;;23.00;99.90;;;;;;4908315;29;20505;-82
2023/06/06 10:46:21;;;;;;;15.37;14.77;;;23.00;99.90;;;;;;4909246;29;20454;-81
2023/06/06 10:48:56;;;;;;;15.07;14.57;;;23.00;99.90;;;;;;4908853;29;20469;-81
2023/06/06 10:51:32;;;;;;;14.80;14.30;;;23.00;99.90;;;;;;4909737;29;20470;-81
2023/06/06 10:54:20;;;;;;;14.97;14.27;;;23.10;99.90;;;;;;4910025;29;20465;-81
2023/06/06 10:56:52;;;;;;;15.30;14.60;;;23.10;99.90;;;;;;4910139;29;20488;-80
2023/06/06 10:59:27;;;;;;;14.27;13.87;;;23.10;99.90;;;;;;4909582;29;20453;-81
2023/06/06 11:01:56;;;;;;;13.83;13.27;;;23.20;99.90;;;;;;4906893;29;20461;-81
2023/06/06 11:04:26;;;;;;;14.40;13.77;;;23.20;99.90;;;;;;4908614;29;20485;-82
2023/06/06 11:07:00;;;;;;;14.80;14.20;;;23.30;99.90;;;;;;4909316;29;20469;-81
2023/06/06 11:09:31;;;;;;;13.43;12.93;;;23.40;99.90;;;;;;4909148;29;20527;-81
2023/06/06 11:12:24;;;;;;;13.47;12.97;;;23.40;99.90;;;;;;4924005;29;20461;-82
2023/06/06 11:15:04;;;;;;;12.97;12.50;;;23.40;99.90;;;;;;4903586;29;21162;-81
2023/06/06 11:17:43;;;;;;;14.07;13.47;;;23.40;99.90;;;;;;4905303;29;20639;-82
2023/06/06 11:20:19;;;;;;;13.43;12.83;;;23.40;99.90;;;;;;4908284;29;20457;-81
2023/06/06 11:22:59;;;;;;;14.17;13.60;;;23.30;99.90;;;;;;4907517;29;20497;-80
2023/06/06 11:25:29;;;;;;;13.73;13.23;;;23.20;99.90;;;;;;4906870;29;20488;-81
2023/06/06 11:27:58;;;;;;;14.60;14.00;;;23.30;99.90;;;;;;4907983;29;20466;-81
2023/06/06 11:30:31;;;;;;;13.13;12.63;;;23.20;99.90;;;;;;4908165;29;20485;-81
2023/06/06 11:33:00;;;;;;;12.80;12.40;;;23.20;99.90;;;;;;4907832;29;20474;-81
2023/06/06 11:35:32;;;;;;;13.73;13.23;;;23.20;99.90;;;;;;4907262;29;20718;-82
2023/06/06 11:38:01;;;;;;;14.00;13.50;;;23.20;99.90;;;;;;4921954;29;20481;-81
2023/06/06 11:40:30;;;;;;;14.60;13.90;;;23.20;99.90;;;;;;4908851;29;20466;-82
2023/06/06 11:42:58;;;;;;;13.67;13.10;;;23.30;99.90;;;;;;4908144;29;20451;-82
2023/06/06 11:45:31;;;;;;;13.53;13.13;;;23.40;99.90;;;;;;4907244;29;20477;-81
2023/06/06 11:47:59;;;;;;;13.57;13.07;;;23.50;99.90;;;;;;4899250;29;20461;-80
2023/06/06 11:50:31;;;;;;;13.67;13.17;;;23.60;99.90;;;;;;4906955;29;20462;-81
2023/06/06 11:53:00;;;;;;;13.90;13.20;;;23.60;99.90;;;;;;4909085;29;20464;-81
2023/06/06 11:55:38;;;;;;;14.37;13.60;;;23.70;99.90;;;;;;4906249;29;20483;-81
2023/06/06 11:58:07;;;;;;;13.60;13.10;;;23.70;99.90;;;;;;4897819;29;20485;-80
2023/06/06 12:00:37;;;;;;;14.63;13.93;;;23.80;99.90;;;;;;4908305;29;20944;-81
2023/06/06 12:03:06;;;;;;;14.40;13.70;;;23.90;99.90;;;;;;4908298;29;20545;-81
2023/06/06 12:05:36;;;;;;;13.63;13.20;;;24.00;99.90;;;;;;4908989;29;21064;-82
2023/06/06 12:08:04;;;;;;;14.07;13.43;;;24.00;99.90;;;;;;4907785;29;20972;-82
2023/06/06 12:10:33;;;;;;;13.40;12.90;;;24.00;99.90;;;;;;4906855;29;20877;-81
2023/06/06 12:13:01;;;;;;;13.70;13.10;;;23.90;99.90;;;;;;4908512;29;20509;-81
2023/06/06 12:15:46;;;;;;;13.97;13.23;;;23.80;99.90;;;;;;4908794;29;21277;-81
2023/06/06 12:18:14;;;;;;;12.73;12.13;;;23.90;99.90;;;;;;4905705;29;20490;-81
2023/06/06 12:20:47;;;;;;;12.77;12.27;;;24.00;99.90;;;;;;4906353;29;20548;-81
2023/06/06 12:23:26;;;;;;;12.90;12.40;;;24.10;99.90;;;;;;4901076;29;20542;-81
2023/06/06 12:25:57;;;;;;;13.00;12.30;;;24.10;99.90;;;;;;4908603;29;21029;-81
2023/06/06 12:28:25;;;;;;;11.87;11.47;;;24.20;99.90;;;;;;4907614;29;20540;-81
2023/06/06 12:30:57;;;;;;;12.37;11.70;;;24.10;99.90;;;;;;4906551;29;20986;-81
2023/06/06 12:33:46;;;;;;;13.00;12.50;;;24.10;99.90;;;;;;4909180;29;20450;-81
2023/06/06 12:36:19;;;;;;;13.47;12.87;;;24.10;99.90;;;;;;4908395;29;20465;-81
2023/06/06 12:38:58;;;;;;;13.13;12.63;;;24.20;99.90;;;;;;4908603;29;20481;-81
2023/06/06 12:41:36;;;;;;;12.60;12.00;;;24.20;99.90;;;;;;4905763;29;20532;-81